createdAt,value
2019-03-10T00:01:36.225Z,27.00
2019-03-10T00:04:05.648Z,13.77
2019-03-10T00:06:36.828Z,17.03
2019-03-10T00:09:10.260Z,14.73
2019-03-10T00:11:42.400Z,21.63
2019-03-10T00:14:15.027Z,24.60
2019-03-10T00:16:46.770Z,20.53
2019-03-10T00:19:16.056Z,15.50
2019-03-10T00:21:48.643Z,15.57
2019-03-10T00:24:20.119Z,21.07
2019-03-10T00:26:49.437Z,20.27
2019-03-10T00:29:18.364Z,22.23
2019-03-10T00:31:47.407Z,17.63
2019-03-10T00:34:26.840Z,16.23
2019-03-10T00:36:59.311Z,24.77
2019-03-10T00:39:33.208Z,14.17
2019-03-10T00:42:14.932Z,18.33
2019-03-10T00:48:21.284Z,20.90
2019-03-10T00:51:21.379Z,22.57
2019-03-10T00:54:09.459Z,18.67
2019-03-10T00:56:53.034Z,19.23
2019-03-10T00:59:21.686Z,19.20
2019-03-10T01:01:53.648Z,17.33
2019-03-10T01:04:25.390Z,21.57
2019-03-10T01:07:01.628Z,18.43
2019-03-10T01:09:30.844Z,18.20
2019-03-10T01:11:59.655Z,16.23
2019-03-10T01:14:32.332Z,16.43
2019-03-10T01:17:01.165Z,16.70
2019-03-10T01:19:31.242Z,16.23
2019-03-10T01:22:02.296Z,20.63
2019-03-10T01:24:32.239Z,17.97
2019-03-10T01:27:00.984Z,17.23
2019-03-10T01:29:30.734Z,16.93
2019-03-10T01:32:12.585Z,13.40
2019-03-10T01:34:43.285Z,17.87
2019-03-10T01:37:11.857Z,15.27
2019-03-10T01:39:43.611Z,19.43
2019-03-10T01:42:13.163Z,19.03
2019-03-10T01:44:44.740Z,16.17
2019-03-10T01:47:16.235Z,17.40
2019-03-10T01:49:45.941Z,19.27
2019-03-10T01:52:15.454Z,18.53
2019-03-10T01:54:46.729Z,18.27
2019-03-10T01:57:16.614Z,18.70
2019-03-10T01:59:47.178Z,17.67
2019-03-10T02:02:24.915Z,17.07
2019-03-10T02:04:46.537Z,18.43
2019-03-10T02:07:16.145Z,19.93
2019-03-10T02:09:44.933Z,22.33
2019-03-10T02:12:14.352Z,22.67
2019-03-10T02:14:47.327Z,20.63
2019-03-10T02:17:15.971Z,24.50
2019-03-10T02:19:44.551Z,20.07
2019-03-10T02:22:13.849Z,21.80
2019-03-10T02:24:42.747Z,25.83
2019-03-10T02:27:12.118Z,25.73
2019-03-10T02:29:40.813Z,21.30
2019-03-10T02:32:09.798Z,27.77
2019-03-10T02:34:38.822Z,32.60
2019-03-10T02:37:21.315Z,29.93
2019-03-10T02:40:04.443Z,30.83
2019-03-10T02:42:42.187Z,27.63
2019-03-10T02:45:11.636Z,30.33
2019-03-10T02:47:42.359Z,29.77
2019-03-10T02:50:11.333Z,24.80
2019-03-10T02:52:42.671Z,31.90
2019-03-10T02:55:12.314Z,27.80
2019-03-10T02:57:41.687Z,31.23
2019-03-10T03:00:13.750Z,28.83
2019-03-10T03:02:42.693Z,25.33
2019-03-10T03:05:11.702Z,28.27
2019-03-10T03:07:40.419Z,25.40
2019-03-10T03:10:10.338Z,29.93
2019-03-10T03:12:41.070Z,24.40
2019-03-10T03:15:09.569Z,29.73
2019-03-10T03:17:38.301Z,27.87
2019-03-10T03:20:07.427Z,27.37
2019-03-10T03:22:39.753Z,18.53
2019-03-10T03:25:08.610Z,26.20
2019-03-10T03:27:40.735Z,20.63
2019-03-10T03:30:10.113Z,19.27
2019-03-10T03:32:39.104Z,22.00
2019-03-10T03:35:27.576Z,19.57
2019-03-10T03:37:56.180Z,15.60
2019-03-10T03:40:25.045Z,17.93
2019-03-10T03:42:53.756Z,20.50
2019-03-10T03:45:22.499Z,19.83
2019-03-10T03:47:51.199Z,17.17
2019-03-10T03:50:20.132Z,18.20
2019-03-10T03:52:48.964Z,18.43
2019-03-10T03:55:18.475Z,17.13
2019-03-10T03:57:47.673Z,15.73
2019-03-10T04:00:16.717Z,18.53
2019-03-10T04:02:45.898Z,17.83
2019-03-10T04:05:15.200Z,20.47
2019-03-10T04:07:48.265Z,15.13
2019-03-10T04:10:23.945Z,15.33
2019-03-10T04:12:52.635Z,9.63
2019-03-10T04:15:27.684Z,19.13
2019-03-10T04:18:13.730Z,10.87
2019-03-10T04:20:56.368Z,16.60
2019-03-10T04:23:25.966Z,10.93
2019-03-10T04:25:58.366Z,15.73
2019-03-10T04:28:32.523Z,20.07
2019-03-10T04:31:08.534Z,20.17
2019-03-10T04:33:38.790Z,19.77
2019-03-10T04:36:29.952Z,21.43
2019-03-10T04:39:28.132Z,16.43
2019-03-10T04:42:28.171Z,13.27
2019-03-10T04:45:02.815Z,16.40
2019-03-10T04:47:36.410Z,17.07
2019-03-10T04:50:16.506Z,13.00
2019-03-10T04:52:49.648Z,13.33
2019-03-10T04:55:35.245Z,19.83
2019-03-10T04:58:34.619Z,17.07
2019-03-10T05:01:09.670Z,17.00
2019-03-10T05:03:41.016Z,12.97
2019-03-10T05:06:11.531Z,13.60
2019-03-10T05:08:40.391Z,16.43
2019-03-10T05:11:09.632Z,16.00
2019-03-10T05:13:38.740Z,15.57
2019-03-10T05:16:07.702Z,16.70
2019-03-10T05:18:36.316Z,20.07
2019-03-10T05:21:04.952Z,18.27
2019-03-10T05:23:43.076Z,13.00
2019-03-10T05:26:12.174Z,13.80
2019-03-10T05:28:44.753Z,15.37
2019-03-10T05:31:13.854Z,16.07
2019-03-10T05:33:42.676Z,11.37
2019-03-10T05:36:11.199Z,17.53
2019-03-10T05:38:39.768Z,12.70
2019-03-10T05:41:08.618Z,15.27
2019-03-10T05:43:37.244Z,14.70
2019-03-10T05:46:06.070Z,9.57
2019-03-10T05:48:34.984Z,9.97
2019-03-10T05:51:03.585Z,10.03
2019-03-10T05:53:32.406Z,9.97
2019-03-10T05:56:04.398Z,11.37
2019-03-10T05:58:35.090Z,15.93
2019-03-10T06:01:03.386Z,17.53
2019-03-10T06:03:32.237Z,15.73
2019-03-10T06:06:01.395Z,11.27
2019-03-10T06:08:29.936Z,16.07
2019-03-10T06:10:58.677Z,16.63
2019-03-10T06:13:27.295Z,12.70
2019-03-10T06:15:57.914Z,16.53
2019-03-10T06:18:26.881Z,19.17
2019-03-10T06:20:55.823Z,15.67
2019-03-10T06:23:24.765Z,12.57
2019-03-10T06:25:53.329Z,16.20
2019-03-10T06:28:22.010Z,17.03
2019-03-10T06:30:50.521Z,19.63
2019-03-10T06:33:19.424Z,23.27
2019-03-10T06:35:48.031Z,14.93
2019-03-10T06:38:16.652Z,18.80
2019-03-10T06:40:45.363Z,21.30
2019-03-10T06:43:14.020Z,17.13
2019-03-10T06:45:42.787Z,19.33
2019-03-10T06:48:11.530Z,17.80
2019-03-10T06:50:40.101Z,20.63
2019-03-10T06:53:08.842Z,18.73
2019-03-10T06:55:37.462Z,17.73
2019-03-10T06:58:06.065Z,16.63
2019-03-10T07:00:34.612Z,18.67
2019-03-10T07:03:03.395Z,21.90
2019-03-10T07:05:32.839Z,24.40
2019-03-10T07:08:01.284Z,20.53
2019-03-10T07:10:30.001Z,19.30
2019-03-10T07:13:00.779Z,19.60
2019-03-10T07:15:29.438Z,18.40
2019-03-10T07:17:58.035Z,18.23
2019-03-10T07:20:26.677Z,19.53
2019-03-10T07:22:55.159Z,12.90
2019-03-10T07:25:23.736Z,18.83
2019-03-10T07:28:04.105Z,13.27
2019-03-10T07:34:11.357Z,17.23
2019-03-10T07:44:22.390Z,15.33
2019-03-10T07:51:02.820Z,14.43
2019-03-10T07:53:40.180Z,9.60
2019-03-10T07:56:20.461Z,15.33
2019-03-10T07:59:07.687Z,13.70
2019-03-10T08:01:58.812Z,17.07
2019-03-10T08:05:47.549Z,13.97
2019-03-10T08:08:39.984Z,14.53
2019-03-10T08:11:22.769Z,16.50
2019-03-10T08:14:13.623Z,12.30
2019-03-10T08:17:03.146Z,16.67
2019-03-10T08:19:57.834Z,15.53
2019-03-10T08:23:00.582Z,15.13
2019-03-10T08:25:57.837Z,13.60
2019-03-10T08:28:39.742Z,12.90
2019-03-10T08:31:23.875Z,12.03
2019-03-10T08:34:09.765Z,14.87
2019-03-10T08:36:48.395Z,14.40
2019-03-10T08:39:36.352Z,15.53
2019-03-10T08:42:21.070Z,12.97
2019-03-10T08:45:08.727Z,14.07
2019-03-10T08:47:58.178Z,12.30
2019-03-10T08:51:35.263Z,8.03
2019-03-10T08:54:32.180Z,10.90
2019-03-10T08:57:15.721Z,12.47
2019-03-10T09:00:09.428Z,8.67
2019-03-10T09:03:12.134Z,11.57
2019-03-10T09:06:01.597Z,9.53
2019-03-10T09:09:02.822Z,11.67
2019-03-10T09:12:11.743Z,8.07
2019-03-10T09:18:53.456Z,11.40
2019-03-10T09:21:52.656Z,12.30
2019-03-10T09:24:40.866Z,6.93
2019-03-10T09:27:32.006Z,4.70
2019-03-10T09:30:28.586Z,6.67
2019-03-10T09:33:36.777Z,6.10
2019-03-10T09:36:32.196Z,5.60
2019-03-10T09:39:13.373Z,7.70
2019-03-10T09:54:29.618Z,24.83
2019-03-10T10:39:56.138Z,74.50
2019-03-10T10:43:29.208Z,76.63
2019-03-10T10:50:01.182Z,94.23
2019-03-10T11:05:34.867Z,68.40
2019-03-10T11:08:18.700Z,71.23
2019-03-10T11:11:18.894Z,62.83
2019-03-10T11:14:07.039Z,59.67
2019-03-10T11:16:53.748Z,59.90
2019-03-10T11:19:44.651Z,67.80
2019-03-10T11:22:19.773Z,73.40
2019-03-10T11:25:06.017Z,68.17
2019-03-10T11:27:58.396Z,65.37
2019-03-10T11:30:39.857Z,55.80
2019-03-10T11:33:27.435Z,56.60
2019-03-10T11:36:34.910Z,48.17
2019-03-10T11:39:27.524Z,53.33
2019-03-10T11:42:23.047Z,67.50
2019-03-10T11:45:02.464Z,63.57
2019-03-10T11:47:39.216Z,67.20
2019-03-10T11:50:25.664Z,41.73
2019-03-10T11:53:06.401Z,42.90
2019-03-10T11:55:56.928Z,26.87
2019-03-10T11:58:47.313Z,15.43
2019-03-10T12:01:21.407Z,16.67
2019-03-10T12:03:59.607Z,21.53
2019-03-10T12:06:53.067Z,18.90
2019-03-10T12:09:22.348Z,21.77
2019-03-10T12:11:50.998Z,20.70
2019-03-10T12:14:23.474Z,18.50
2019-03-10T12:17:05.349Z,20.30
2019-03-10T12:19:35.404Z,8.33
2019-03-10T12:22:04.199Z,30.70
2019-03-10T12:24:32.846Z,18.40
2019-03-10T12:27:01.557Z,20.20
2019-03-10T12:29:30.655Z,20.33
2019-03-10T12:31:59.543Z,16.20
2019-03-10T12:34:28.226Z,12.37
2019-03-10T12:36:57.312Z,12.73
2019-03-10T12:39:27.153Z,17.37
2019-03-10T12:41:58.792Z,13.07
2019-03-10T12:44:30.613Z,19.13
2019-03-10T12:46:59.617Z,16.77
2019-03-10T12:49:28.362Z,16.20
2019-03-10T12:51:56.874Z,12.60
2019-03-10T12:54:28.950Z,13.13
2019-03-10T12:56:57.757Z,16.73
2019-03-10T12:59:53.347Z,13.63
2019-03-10T13:02:21.976Z,14.90
2019-03-10T13:04:51.105Z,15.70
2019-03-10T13:07:20.190Z,14.10
2019-03-10T13:09:48.962Z,7.13
2019-03-10T13:12:19.272Z,5.70
2019-03-10T13:15:05.062Z,6.50
2019-03-10T13:17:34.648Z,8.37
2019-03-10T13:20:03.684Z,8.40
2019-03-10T13:22:32.485Z,6.53
2019-03-10T13:25:01.310Z,5.07
2019-03-10T13:27:33.408Z,9.80
2019-03-10T13:30:02.351Z,6.40
2019-03-10T13:32:33.298Z,6.77
2019-03-10T13:35:02.584Z,4.73
2019-03-10T13:37:32.783Z,4.83
2019-03-10T13:40:03.725Z,9.90
2019-03-10T13:42:32.530Z,4.73
2019-03-10T13:45:00.997Z,10.53
2019-03-10T13:47:29.504Z,3.07
2019-03-10T13:49:58.120Z,6.23
2019-03-10T13:52:26.833Z,5.70
2019-03-10T13:54:55.391Z,8.57
2019-03-10T13:57:24.103Z,3.90
2019-03-10T13:59:54.055Z,5.77
2019-03-10T14:02:22.706Z,8.37
2019-03-10T14:04:51.308Z,6.57
2019-03-10T14:07:19.901Z,3.87
2019-03-10T14:09:49.313Z,4.00
2019-03-10T14:12:18.151Z,3.47
2019-03-10T14:17:49.524Z,3.83
2019-03-10T14:20:37.290Z,3.10
2019-03-10T14:23:24.575Z,3.33
2019-03-10T14:25:57.127Z,2.80
2019-03-10T14:28:25.781Z,7.67
2019-03-10T14:30:54.638Z,5.37
2019-03-10T14:33:24.988Z,4.07
2019-03-10T14:35:58.446Z,4.00
2019-03-10T14:38:26.921Z,3.70
2019-03-10T14:41:01.451Z,6.53
2019-03-10T14:43:34.315Z,3.70
2019-03-10T14:46:23.034Z,4.17
2019-03-10T14:51:36.755Z,2.90
2019-03-10T14:54:15.806Z,3.10
2019-03-10T14:56:43.165Z,8.70
2019-03-10T14:59:15.410Z,6.27
2019-03-10T15:01:46.878Z,2.73
2019-03-10T15:17:51.535Z,3.60
2019-03-10T15:20:32.521Z,5.57
2019-03-10T15:23:06.129Z,8.17
2019-03-10T15:25:39.783Z,5.70
2019-03-10T15:28:41.414Z,3.00
2019-03-10T15:31:27.587Z,5.93
2019-03-10T15:34:11.173Z,3.13
2019-03-10T15:36:40.398Z,6.53
2019-03-10T15:39:13.655Z,9.07
2019-03-10T15:41:48.834Z,2.37
2019-03-10T15:44:19.344Z,2.67
2019-03-10T15:46:51.321Z,4.80
2019-03-10T15:49:22.161Z,3.50
2019-03-10T15:51:52.620Z,11.50
2019-03-10T15:54:32.158Z,4.93
2019-03-10T15:57:13.905Z,9.70
2019-03-10T15:59:48.091Z,5.87
2019-03-10T16:02:22.954Z,6.30
2019-03-10T16:04:57.665Z,7.83
2019-03-10T16:07:33.442Z,8.93
2019-03-10T16:10:12.328Z,8.87
2019-03-10T16:12:43.579Z,12.93
2019-03-10T16:15:12.825Z,10.90
2019-03-10T16:17:42.209Z,9.97
2019-03-10T16:20:11.117Z,12.07
2019-03-10T16:22:39.553Z,4.17
2019-03-10T16:25:08.835Z,5.17
2019-03-10T16:27:37.227Z,6.43
2019-03-10T16:30:06.256Z,6.07
2019-03-10T16:32:36.105Z,10.33
2019-03-10T16:35:04.957Z,19.60
2019-03-10T16:37:33.823Z,6.13
2019-03-10T16:40:02.593Z,3.03
2019-03-10T16:42:31.077Z,6.83
2019-03-10T16:45:00.123Z,11.70
2019-03-10T16:47:28.596Z,7.50
2019-03-10T16:49:56.957Z,6.83
2019-03-10T16:52:25.424Z,9.00
2019-03-10T16:54:53.836Z,7.47
2019-03-10T16:57:22.371Z,14.27
2019-03-10T16:59:50.859Z,14.00
2019-03-10T17:02:19.254Z,9.50
2019-03-10T17:04:47.654Z,10.30
2019-03-10T17:07:16.127Z,12.73
2019-03-10T17:09:44.671Z,13.50
2019-03-10T17:12:13.088Z,9.20
2019-03-10T17:14:41.834Z,12.33
2019-03-10T17:17:10.253Z,13.07
2019-03-10T17:19:38.685Z,10.33
2019-03-10T17:22:07.457Z,7.87
2019-03-10T17:24:36.042Z,11.83
2019-03-10T17:27:04.997Z,8.27
2019-03-10T17:29:33.607Z,9.50
2019-03-10T17:32:02.054Z,9.57
2019-03-10T17:34:30.420Z,19.57
2019-03-10T17:36:58.928Z,13.33
2019-03-10T17:39:29.504Z,12.23
2019-03-10T17:41:58.036Z,12.03
2019-03-10T17:44:26.989Z,14.63
2019-03-10T17:46:55.510Z,16.87
2019-03-10T17:49:23.949Z,17.63
2019-03-10T17:51:52.501Z,14.93
2019-03-10T17:54:21.062Z,11.87
2019-03-10T17:56:49.907Z,9.40
2019-03-10T17:59:18.594Z,10.17
2019-03-10T18:01:47.015Z,13.70
2019-03-10T18:04:15.733Z,11.43
2019-03-10T18:06:44.107Z,8.30
2019-03-10T18:09:12.559Z,11.73
2019-03-10T18:11:40.975Z,9.33
2019-03-10T18:14:09.317Z,5.53
2019-03-10T18:16:37.655Z,7.20
2019-03-10T18:19:06.839Z,9.63
2019-03-10T18:21:35.241Z,10.07
2019-03-10T18:24:03.859Z,12.50
2019-03-10T18:26:32.252Z,17.30
2019-03-10T18:29:00.644Z,12.73
2019-03-10T18:31:29.035Z,14.77
2019-03-10T18:33:57.471Z,13.87
2019-03-10T18:36:26.168Z,16.10
2019-03-10T18:38:54.563Z,17.53
2019-03-10T18:41:23.005Z,13.13
2019-03-10T18:43:51.509Z,14.17
2019-03-10T18:46:21.228Z,19.70
2019-03-10T18:48:52.557Z,12.20
2019-03-10T18:51:21.834Z,21.50
2019-03-10T18:53:51.649Z,18.90
2019-03-10T18:56:20.794Z,22.30
2019-03-10T18:58:49.299Z,14.50
2019-03-10T19:01:18.218Z,19.77
2019-03-10T19:03:46.750Z,14.47
2019-03-10T19:06:15.490Z,14.70
2019-03-10T19:08:44.802Z,11.57
2019-03-10T19:11:13.299Z,15.07
2019-03-10T19:13:41.933Z,13.70
2019-03-10T19:16:10.317Z,18.63
2019-03-10T19:18:38.838Z,5.50
2019-03-10T19:21:07.546Z,14.87
2019-03-10T19:23:36.257Z,13.43
2019-03-10T19:26:06.538Z,8.70
2019-03-10T19:28:34.925Z,12.03
2019-03-10T19:31:03.306Z,7.73
2019-03-10T19:33:31.831Z,10.53
2019-03-10T19:36:00.300Z,12.43
2019-03-10T19:38:29.010Z,14.53
2019-03-10T19:40:57.905Z,11.00
2019-03-10T19:44:15.499Z,14.17
2019-03-10T19:46:44.001Z,9.47
2019-03-10T19:49:13.739Z,6.53
2019-03-10T19:51:42.133Z,9.27
2019-03-10T19:54:10.682Z,12.20
2019-03-10T19:56:39.325Z,16.07
2019-03-10T19:59:07.879Z,6.17
2019-03-10T20:01:36.454Z,9.87
2019-03-10T20:04:04.956Z,9.80
2019-03-10T20:06:33.576Z,14.07
2019-03-10T20:09:02.091Z,12.63
2019-03-10T20:11:30.516Z,9.73
2019-03-10T20:13:58.917Z,10.77
2019-03-10T20:16:27.379Z,14.57
2019-03-10T20:18:55.876Z,10.17
2019-03-10T20:21:24.762Z,19.20
2019-03-10T20:23:53.201Z,11.33
2019-03-10T20:26:22.149Z,7.83
2019-03-10T20:28:52.077Z,21.57
2019-03-10T20:31:20.564Z,10.10
2019-03-10T20:33:49.273Z,11.90
2019-03-10T20:36:17.782Z,6.70
2019-03-10T20:38:46.367Z,8.17
2019-03-10T20:41:14.882Z,6.77
2019-03-10T20:43:43.616Z,11.43
2019-03-10T20:46:12.344Z,8.90
2019-03-10T20:48:41.015Z,7.70
2019-03-10T20:51:15.690Z,5.93
2019-03-10T20:53:44.432Z,8.67
2019-03-10T20:56:13.389Z,9.53
2019-03-10T20:58:42.098Z,10.20
2019-03-10T21:01:10.804Z,10.07
2019-03-10T21:03:40.450Z,16.30
2019-03-10T21:06:08.957Z,10.57
2019-03-10T21:08:37.828Z,13.27
2019-03-10T21:11:07.294Z,10.93
2019-03-10T21:13:35.916Z,9.57
2019-03-10T21:16:04.562Z,9.60
2019-03-10T21:18:39.760Z,10.23
2019-03-10T21:21:08.273Z,8.73
2019-03-10T21:27:28.956Z,13.03
2019-03-10T21:30:02.799Z,10.57
2019-03-10T21:33:04.029Z,8.27
2019-03-10T21:38:27.305Z,10.27
2019-03-10T21:40:55.906Z,7.43
2019-03-10T21:46:21.272Z,10.37
2019-03-10T21:48:49.892Z,8.23
2019-03-10T21:51:19.294Z,10.93
2019-03-10T21:58:11.269Z,7.53
2019-03-10T22:01:04.264Z,14.33
2019-03-10T22:03:34.280Z,10.90
2019-03-10T22:06:03.051Z,16.83
2019-03-10T22:08:41.040Z,14.63
2019-03-10T22:11:15.714Z,10.43
2019-03-10T22:13:50.350Z,12.30
2019-03-10T22:16:39.004Z,4.77
2019-03-10T22:19:08.435Z,4.17
2019-03-10T22:21:43.341Z,6.73
2019-03-10T22:24:12.847Z,10.47
2019-03-10T22:26:41.895Z,11.30
2019-03-10T22:29:10.842Z,8.30
2019-03-10T22:31:39.406Z,8.30
2019-03-10T22:34:08.016Z,8.17
2019-03-10T22:36:36.791Z,6.37
2019-03-10T22:39:06.401Z,10.00
2019-03-10T22:41:34.992Z,8.77
2019-03-10T22:44:03.606Z,8.00
2019-03-10T22:46:32.219Z,8.87
2019-03-10T22:49:00.924Z,5.77
2019-03-10T22:51:29.524Z,6.47
2019-03-10T22:53:58.093Z,6.83
2019-03-10T22:56:26.581Z,13.47
2019-03-10T22:58:55.010Z,15.43
2019-03-10T23:01:23.561Z,6.73
2019-03-10T23:03:52.135Z,7.00
2019-03-10T23:06:20.692Z,7.70
2019-03-10T23:08:50.591Z,13.03
2019-03-10T23:11:19.075Z,13.10
2019-03-10T23:13:47.692Z,7.13
2019-03-10T23:16:16.195Z,8.90
2019-03-10T23:18:44.742Z,11.30
2019-03-10T23:21:14.266Z,7.63
2019-03-10T23:23:42.923Z,10.03
2019-03-10T23:26:12.718Z,7.17
2019-03-10T23:28:42.906Z,10.07
2019-03-10T23:31:11.383Z,7.90
2019-03-10T23:33:40.270Z,11.13
2019-03-10T23:36:08.777Z,8.13
2019-03-10T23:38:39.274Z,9.37
2019-03-10T23:41:07.899Z,6.37
2019-03-10T23:43:36.455Z,6.97
2019-03-10T23:46:05.094Z,15.40
2019-03-10T23:48:34.572Z,8.63
2019-03-10T23:51:03.145Z,9.57
2019-03-10T23:53:33.950Z,7.80
2019-03-10T23:56:02.686Z,5.03
2019-03-10T23:58:31.223Z,5.30
